Time;durP1;ratioP1;P1;durP2;ratioP2;P2;SDS_P1;SDS_P2;PMS_P1;PMS_P2;Temp;Humidity;BMP_temperature;BMP_pressure;BME280_temperature;BME280_humidity;BME280_pressure;Samples;Min_cycle;Max_cycle;Signal;HPM_P1;HPM_P2
2021/10/22 00:01:20;;;;;;;0.75;0.20;;;22.50;51.40;;;;;;5042809;28;20412;-46
2021/10/22 00:03:47;;;;;;;4.57;0.30;;;22.40;51.40;;;;;;5041797;28;20033;-48
2021/10/22 00:06:16;;;;;;;0.90;0.45;;;22.40;51.30;;;;;;5045890;28;20079;-47
2021/10/22 00:08:44;;;;;;;0.28;0.25;;;22.50;51.40;;;;;;5044943;28;20043;-47
2021/10/22 00:11:11;;;;;;;0.93;0.15;;;22.40;51.20;;;;;;5045028;28;20120;-47
2021/10/22 00:13:38;;;;;;;0.57;0.10;;;22.40;51.20;;;;;;5042865;28;20033;-48
2021/10/22 00:16:06;;;;;;;3.50;0.32;;;22.40;51.30;;;;;;5045528;28;20041;-47
2021/10/22 00:18:33;;;;;;;1.88;0.10;;;22.40;51.20;;;;;;5046970;28;20037;-46
2021/10/22 00:21:00;;;;;;;0.43;0.20;;;22.40;51.10;;;;;;5041019;28;20784;-46
2021/10/22 00:23:28;;;;;;;0.25;0.20;;;22.40;51.10;;;;;;5045370;28;20037;-47
2021/10/22 00:25:56;;;;;;;0.17;0.10;;;22.40;51.10;;;;;;5045757;28;20064;-45
2021/10/22 00:28:23;;;;;;;0.55;0.10;;;22.40;51.10;;;;;;5047948;28;20757;-46
2021/10/22 00:30:50;;;;;;;0.20;0.20;;;22.40;51.00;;;;;;5048987;28;20067;-46
2021/10/22 00:33:17;;;;;;;0.50;0.10;;;22.40;51.00;;;;;;5048579;28;20167;-46
2021/10/22 00:36:05;;;;;;;0.20;0.17;;;22.40;51.00;;;;;;5463607;22;20045;-35
2021/10/22 00:38:35;;;;;;;0.40;0.10;;;22.40;51.00;;;;;;5019120;28;20053;-41
2021/10/22 00:41:02;;;;;;;1.13;0.20;;;22.30;51.00;;;;;;5015704;28;20133;-43
2021/10/22 00:43:31;;;;;;;0.32;0.10;;;22.30;51.00;;;;;;5017393;28;20037;-40
2021/10/22 00:45:58;;;;;;;0.43;0.15;;;22.30;51.10;;;;;;5013827;28;20044;-41
2021/10/22 00:48:25;;;;;;;0.22;0.10;;;22.30;51.00;;;;;;5017967;28;20045;-40
2021/10/22 00:50:56;;;;;;;0.60;0.13;;;22.30;51.00;;;;;;5012873;28;20528;-38
2021/10/22 00:53:25;;;;;;;0.28;0.28;;;22.30;51.10;;;;;;5019140;28;20120;-42
2021/10/22 00:55:54;;;;;;;1.98;0.20;;;22.30;51.10;;;;;;5013784;28;20048;-41
2021/10/22 00:58:21;;;;;;;0.30;0.10;;;22.30;51.10;;;;;;5016695;28;20069;-42
2021/10/22 01:00:49;;;;;;;0.10;0.10;;;22.30;51.10;;;;;;5012805;28;20117;-42
2021/10/22 01:03:17;;;;;;;0.60;0.20;;;22.30;51.10;;;;;;5014612;28;20042;-41
2021/10/22 01:05:45;;;;;;;0.85;0.10;;;22.30;51.10;;;;;;5014489;28;20525;-41
2021/10/22 01:08:13;;;;;;;0.47;0.10;;;22.30;51.20;;;;;;5018035;28;20509;-39
2021/10/22 01:10:40;;;;;;;1.40;0.40;;;22.20;51.10;;;;;;5018743;28;20042;-42
2021/10/22 01:13:09;;;;;;;0.22;0.10;;;22.20;51.20;;;;;;5013225;28;20046;-42
2021/10/22 01:15:36;;;;;;;0.10;0.10;;;22.20;51.20;;;;;;5011087;28;20057;-42
2021/10/22 01:18:03;;;;;;;1.83;0.10;;;22.20;51.20;;;;;;5014993;28;20125;-39
2021/10/22 01:20:30;;;;;;;0.43;0.10;;;22.20;51.30;;;;;;5019694;28;20042;-42
2021/10/22 01:23:00;;;;;;;2.70;0.10;;;22.20;51.30;;;;;;5012927;28;20206;-43
2021/10/22 01:25:28;;;;;;;0.32;0.25;;;22.20;51.40;;;;;;5017198;28;20049;-39
2021/10/22 01:27:57;;;;;;;0.10;0.10;;;22.20;51.40;;;;;;5013253;28;20139;-44
2021/10/22 01:30:26;;;;;;;0.90;0.10;;;22.20;51.40;;;;;;5023769;28;20041;-42
2021/10/22 01:32:59;;;;;;;0.20;0.10;;;22.20;51.40;;;;;;5014699;28;20049;-41
2021/10/22 01:35:27;;;;;;;0.98;0.30;;;22.20;51.30;;;;;;5018347;28;20060;-41
2021/10/22 01:37:54;;;;;;;2.92;0.77;;;22.10;51.30;;;;;;5030044;28;20045;-41
2021/10/22 01:40:23;;;;;;;0.10;0.10;;;22.10;51.30;;;;;;5035283;28;20032;-41
2021/10/22 01:42:50;;;;;;;1.55;0.10;;;22.10;51.30;;;;;;5043626;28;20037;-44
2021/10/22 01:45:18;;;;;;;0.10;0.10;;;22.10;51.20;;;;;;5033659;28;20048;-44
2021/10/22 01:47:45;;;;;;;0.22;0.10;;;22.10;51.20;;;;;;5033773;28;20038;-40
2021/10/22 01:50:12;;;;;;;2.00;0.10;;;22.20;51.20;;;;;;5035712;28;20045;-43
2021/10/22 01:52:39;;;;;;;0.30;0.10;;;22.10;51.20;;;;;;5035553;28;20044;-42
2021/10/22 01:55:08;;;;;;;1.05;0.47;;;22.10;51.20;;;;;;5032219;28;20590;-40
2021/10/22 01:57:40;;;;;;;0.40;0.10;;;22.10;51.20;;;;;;5028790;28;20124;-42
2021/10/22 02:00:08;;;;;;;0.63;0.10;;;22.10;51.20;;;;;;5031828;28;20069;-41
2021/10/22 02:02:40;;;;;;;0.20;0.10;;;22.10;51.10;;;;;;5038461;28;20483;-41
2021/10/22 02:05:08;;;;;;;0.35;0.10;;;22.10;51.70;;;;;;5031323;28;20095;-41
2021/10/22 02:07:35;;;;;;;0.57;0.10;;;22.10;51.00;;;;;;5037089;28;20041;-41
2021/10/22 02:10:03;;;;;;;0.57;0.10;;;22.00;50.90;;;;;;5033051;28;20863;-42
2021/10/22 02:12:30;;;;;;;0.25;0.10;;;22.00;50.90;;;;;;5033545;28;20849;-41
2021/10/22 02:14:59;;;;;;;1.67;0.10;;;22.10;50.90;;;;;;5031373;28;20042;-41
2021/10/22 02:17:26;;;;;;;1.45;0.10;;;22.00;50.90;;;;;;5035434;28;20104;-41
2021/10/22 02:19:53;;;;;;;0.43;0.10;;;22.00;50.90;;;;;;5037641;28;20041;-42
2021/10/22 02:22:20;;;;;;;0.57;0.10;;;22.00;50.90;;;;;;5031733;28;20040;-41
2021/10/22 02:24:47;;;;;;;0.28;0.28;;;22.00;50.90;;;;;;5031853;28;20055;-41
2021/10/22 02:27:15;;;;;;;0.25;0.10;;;22.00;50.90;;;;;;5033067;28;20377;-44
2021/10/22 02:29:42;;;;;;;1.05;0.10;;;22.00;50.90;;;;;;5033273;28;20519;-43
2021/10/22 02:32:11;;;;;;;1.55;0.10;;;22.00;50.90;;;;;;5034082;28;20036;-42
2021/10/22 02:34:38;;;;;;;1.38;0.10;;;22.00;51.40;;;;;;5032412;28;20034;-42
2021/10/22 02:37:06;;;;;;;0.10;0.10;;;22.00;50.80;;;;;;5031652;28;20080;-41
2021/10/22 02:39:35;;;;;;;1.80;0.10;;;22.00;50.70;;;;;;5028566;28;20044;-41
2021/10/22 02:42:03;;;;;;;1.67;0.20;;;22.00;50.70;;;;;;5033513;28;20136;-41
2021/10/22 02:44:30;;;;;;;2.97;0.52;;;22.00;50.70;;;;;;5036260;28;20815;-43
2021/10/22 02:46:57;;;;;;;0.10;0.10;;;21.90;50.60;;;;;;5031075;28;20041;-42
2021/10/22 02:49:26;;;;;;;1.25;0.10;;;21.90;50.50;;;;;;5034372;28;20068;-41
2021/10/22 02:51:55;;;;;;;1.15;0.10;;;22.00;51.20;;;;;;5030251;28;20080;-41
2021/10/22 02:54:22;;;;;;;0.55;0.10;;;21.90;50.50;;;;;;5027199;28;20038;-41
2021/10/22 02:56:49;;;;;;;0.68;0.52;;;21.90;50.50;;;;;;5043077;28;20040;-42
2021/10/22 02:59:16;;;;;;;0.10;0.10;;;21.90;50.50;;;;;;5034755;28;20072;-43
2021/10/22 03:01:43;;;;;;;0.65;0.10;;;21.90;50.50;;;;;;5036606;28;20374;-43
2021/10/22 03:04:11;;;;;;;0.20;0.10;;;21.90;50.50;;;;;;5031262;28;20475;-41
2021/10/22 03:06:39;;;;;;;0.10;0.10;;;21.90;50.50;;;;;;5030159;28;20048;-41
2021/10/22 03:09:06;;;;;;;0.22;0.10;;;21.90;50.40;;;;;;5032792;28;20390;-43
2021/10/22 03:11:33;;;;;;;0.47;0.20;;;21.90;50.40;;;;;;5038711;28;20047;-42
2021/10/22 03:14:00;;;;;;;0.60;0.20;;;21.90;50.40;;;;;;5031282;28;20482;-42
2021/10/22 03:16:27;;;;;;;0.10;0.10;;;21.90;50.40;;;;;;5034555;28;20036;-41
2021/10/22 03:18:54;;;;;;;0.55;0.10;;;21.90;50.30;;;;;;5030789;28;20083;-41
2021/10/22 03:21:22;;;;;;;1.08;0.10;;;21.90;50.30;;;;;;5035551;28;20049;-44
2021/10/22 03:23:55;;;;;;;0.35;0.20;;;21.90;50.30;;;;;;5029966;28;20053;-42
2021/10/22 03:26:24;;;;;;;0.30;0.10;;;21.90;50.40;;;;;;5036107;28;20042;-41
2021/10/22 03:28:51;;;;;;;0.85;0.10;;;21.90;50.40;;;;;;5031050;28;20570;-41
2021/10/22 03:31:18;;;;;;;1.23;0.32;;;21.90;50.40;;;;;;5033267;28;20433;-41
2021/10/22 03:33:46;;;;;;;0.85;0.20;;;21.90;50.50;;;;;;5030005;28;20033;-42
2021/10/22 03:36:13;;;;;;;0.30;0.30;;;21.90;50.50;;;;;;5033988;28;20040;-43
2021/10/22 03:38:40;;;;;;;1.08;0.10;;;21.90;50.40;;;;;;5032392;28;20054;-41
2021/10/22 03:41:09;;;;;;;0.10;0.10;;;21.90;50.50;;;;;;5034565;28;20131;-41
2021/10/22 03:43:36;;;;;;;1.27;0.10;;;21.90;50.60;;;;;;5041904;28;20493;-40
2021/10/22 03:46:05;;;;;;;0.40;0.10;;;21.90;50.60;;;;;;5037643;28;20048;-40
2021/10/22 03:48:32;;;;;;;1.52;0.17;;;21.90;50.60;;;;;;5041036;28;20041;-41
2021/10/22 03:50:59;;;;;;;0.90;0.10;;;21.90;50.60;;;;;;5034369;28;20909;-41
2021/10/22 03:53:26;;;;;;;0.10;0.05;;;21.90;50.60;;;;;;5036224;28;20124;-42
2021/10/22 03:55:53;;;;;;;0.80;0.10;;;21.90;50.50;;;;;;5039419;28;20043;-43
2021/10/22 03:58:21;;;;;;;0.17;0.17;;;21.90;50.50;;;;;;5044880;28;20440;-44
2021/10/22 04:00:49;;;;;;;0.43;0.10;;;21.90;50.50;;;;;;5034002;28;20512;-42
2021/10/22 04:03:16;;;;;;;1.88;0.10;;;21.90;50.50;;;;;;5037693;28;20041;-41
2021/10/22 04:05:43;;;;;;;0.47;0.10;;;21.80;50.40;;;;;;5036475;28;20088;-40
2021/10/22 04:08:10;;;;;;;0.10;0.10;;;21.80;50.40;;;;;;5039441;28;20053;-42
2021/10/22 04:10:41;;;;;;;0.10;0.10;;;21.80;50.40;;;;;;5039993;28;20496;-43
2021/10/22 04:13:09;;;;;;;0.10;0.00;;;21.80;50.40;;;;;;5034700;28;20045;-41
2021/10/22 04:15:38;;;;;;;1.15;0.10;;;21.80;50.40;;;;;;5038407;28;20042;-41
2021/10/22 04:18:05;;;;;;;0.65;0.65;;;21.80;50.30;;;;;;5034597;28;20056;-41
2021/10/22 04:20:33;;;;;;;0.25;0.10;;;21.80;50.30;;;;;;5030930;28;20421;-42
2021/10/22 04:23:00;;;;;;;0.80;0.10;;;21.80;50.30;;;;;;5038717;28;20056;-41
2021/10/22 04:25:28;;;;;;;0.30;0.00;;;21.80;50.20;;;;;;5040924;28;20112;-43
2021/10/22 04:27:55;;;;;;;0.63;0.10;;;21.80;50.20;;;;;;5044620;28;20039;-41
2021/10/22 04:30:23;;;;;;;0.20;0.13;;;21.80;50.10;;;;;;5029463;28;20057;-40
2021/10/22 04:32:51;;;;;;;0.10;0.10;;;21.90;50.10;;;;;;5034285;28;20041;-41
2021/10/22 04:35:18;;;;;;;0.60;0.10;;;21.80;50.00;;;;;;5039460;28;20048;-43
2021/10/22 04:37:50;;;;;;;0.82;0.10;;;21.80;50.00;;;;;;5035444;28;20050;-41
2021/10/22 04:40:32;;;;;;;0.10;0.10;;;21.80;50.50;;;;;;5038145;28;20414;-44
2021/10/22 04:43:02;;;;;;;1.85;0.10;;;21.80;50.00;;;;;;5032655;28;20041;-42
2021/10/22 04:45:31;;;;;;;0.77;0.10;;;21.80;50.00;;;;;;5037540;28;20034;-42
2021/10/22 04:48:00;;;;;;;0.08;0.00;;;21.80;50.00;;;;;;5032602;28;20045;-41
2021/10/22 04:50:29;;;;;;;0.10;0.10;;;21.70;50.00;;;;;;5038928;28;20044;-41
2021/10/22 04:52:57;;;;;;;0.10;0.10;;;21.80;50.00;;;;;;5039233;28;20086;-41
2021/10/22 04:55:26;;;;;;;0.10;0.10;;;21.80;50.00;;;;;;5033321;28;20138;-41
2021/10/22 04:57:53;;;;;;;1.63;0.10;;;21.70;49.90;;;;;;5032594;28;20124;-42
2021/10/22 05:00:21;;;;;;;0.13;0.00;;;21.70;49.90;;;;;;5032692;28;20060;-42
2021/10/22 05:02:48;;;;;;;0.32;0.10;;;21.80;49.90;;;;;;5040622;28;20517;-41
2021/10/22 05:05:17;;;;;;;0.10;0.10;;;21.70;49.80;;;;;;5032853;28;20049;-41
2021/10/22 05:07:44;;;;;;;0.35;0.10;;;21.80;49.90;;;;;;5037943;28;20048;-41
2021/10/22 05:10:12;;;;;;;0.05;0.05;;;21.80;49.80;;;;;;5035195;28;20041;-42
2021/10/22 05:12:39;;;;;;;0.65;0.20;;;21.70;49.70;;;;;;5035009;28;20049;-42
2021/10/22 05:15:09;;;;;;;0.38;0.10;;;21.70;49.70;;;;;;5029244;28;20120;-42
2021/10/22 05:17:37;;;;;;;0.00;0.00;;;21.80;49.70;;;;;;5034269;28;20103;-41
2021/10/22 05:20:06;;;;;;;2.65;0.10;;;21.70;49.60;;;;;;5031519;28;20045;-42
2021/10/22 05:22:35;;;;;;;0.20;0.00;;;21.80;49.70;;;;;;5035165;28;20045;-41
2021/10/22 05:25:03;;;;;;;1.40;0.10;;;21.80;49.70;;;;;;5034187;28;20120;-42
2021/10/22 05:27:30;;;;;;;1.52;0.15;;;21.70;49.60;;;;;;5032575;28;20470;-42
2021/10/22 05:29:57;;;;;;;0.10;0.10;;;21.70;49.50;;;;;;5031911;28;20045;-41
2021/10/22 05:32:24;;;;;;;0.10;0.10;;;21.70;49.50;;;;;;5036255;28;20740;-42
2021/10/22 05:34:51;;;;;;;3.42;0.38;;;21.70;49.40;;;;;;5036713;28;20037;-39
2021/10/22 05:37:20;;;;;;;0.00;0.00;;;21.80;49.60;;;;;;5034293;28;20128;-40
2021/10/22 05:39:48;;;;;;;0.38;0.05;;;21.70;49.60;;;;;;5030969;28;20056;-41
2021/10/22 05:42:15;;;;;;;0.73;0.10;;;21.80;49.60;;;;;;5031548;28;20049;-41
2021/10/22 05:44:43;;;;;;;0.25;0.10;;;21.70;49.60;;;;;;5038146;28;20050;-40
2021/10/22 05:47:12;;;;;;;0.55;0.45;;;21.70;49.50;;;;;;5033127;28;20041;-40
2021/10/22 05:49:39;;;;;;;0.85;0.10;;;21.70;49.50;;;;;;5035567;28;20099;-41
2021/10/22 05:52:06;;;;;;;0.20;0.10;;;21.70;49.50;;;;;;5033459;28;20049;-43
2021/10/22 05:54:33;;;;;;;0.85;0.03;;;21.70;49.50;;;;;;5032666;28;20052;-42
2021/10/22 05:57:01;;;;;;;0.00;0.00;;;21.70;49.40;;;;;;5031907;28;20424;-41
2021/10/22 05:59:29;;;;;;;1.27;0.10;;;21.70;49.40;;;;;;5044058;28;20053;-42
2021/10/22 06:01:56;;;;;;;0.32;0.13;;;21.70;49.40;;;;;;5042651;28;20051;-41
2021/10/22 06:04:23;;;;;;;0.75;0.10;;;21.70;49.40;;;;;;5039569;28;20049;-42
2021/10/22 06:06:50;;;;;;;2.08;0.00;;;21.70;49.30;;;;;;5043137;28;20033;-41
2021/10/22 06:09:17;;;;;;;0.10;0.00;;;21.70;49.30;;;;;;5043309;28;20037;-41
2021/10/22 06:11:44;;;;;;;0.32;0.00;;;21.70;49.20;;;;;;5047125;28;20068;-41
2021/10/22 06:14:13;;;;;;;0.10;0.00;;;21.70;49.20;;;;;;5026863;28;20057;-41
2021/10/22 06:16:41;;;;;;;0.95;0.45;;;21.70;49.20;;;;;;5035926;28;20122;-42
2021/10/22 06:19:14;;;;;;;0.15;0.10;;;21.60;49.10;;;;;;5031531;28;20135;-43
2021/10/22 06:21:53;;;;;;;0.80;0.10;;;21.70;49.10;;;;;;5029439;28;20069;-41
2021/10/22 06:24:20;;;;;;;0.20;0.10;;;21.60;49.10;;;;;;5030362;28;20068;-40
2021/10/22 06:26:47;;;;;;;0.20;0.10;;;21.70;49.10;;;;;;5037667;28;20417;-40
2021/10/22 06:29:16;;;;;;;1.83;0.25;;;21.70;49.10;;;;;;5031938;28;20046;-41
2021/10/22 06:31:43;;;;;;;0.38;0.00;;;21.70;49.10;;;;;;5032848;28;20128;-40
2021/10/22 06:34:11;;;;;;;1.23;0.10;;;21.60;49.20;;;;;;5032051;28;20050;-40
2021/10/22 06:36:38;;;;;;;1.55;0.10;;;21.60;49.20;;;;;;5036372;28;21450;-40
2021/10/22 06:39:06;;;;;;;0.30;0.10;;;21.60;49.30;;;;;;5051258;28;20052;-41
2021/10/22 06:41:34;;;;;;;3.10;1.45;;;21.70;49.40;;;;;;5036926;28;20136;-40
2021/10/22 06:44:04;;;;;;;0.28;0.10;;;21.60;49.30;;;;;;5043901;28;20044;-40
2021/10/22 06:46:33;;;;;;;1.05;0.00;;;21.60;49.30;;;;;;5044226;28;20045;-39
2021/10/22 06:49:01;;;;;;;1.00;0.05;;;21.60;49.30;;;;;;5038747;28;20139;-41
2021/10/22 06:51:28;;;;;;;0.10;0.00;;;21.60;49.30;;;;;;5044312;28;20049;-41
2021/10/22 06:53:55;;;;;;;3.17;0.10;;;21.60;49.40;;;;;;5052538;28;20132;-41
2021/10/22 06:56:22;;;;;;;2.08;0.30;;;21.60;49.40;;;;;;5031584;28;20132;-40
2021/10/22 06:58:49;;;;;;;6.72;0.32;;;21.60;49.50;;;;;;5034723;28;20048;-41
2021/10/22 07:01:16;;;;;;;3.22;0.10;;;21.50;49.60;;;;;;5033780;28;20048;-42
2021/10/22 07:03:45;;;;;;;0.60;0.10;;;21.50;49.40;;;;;;5032223;28;20052;-42
2021/10/22 07:08:58;;;;;;;3.13;0.10;;;21.40;49.40;;;;;;5033446;28;20038;-42
2021/10/22 07:11:26;;;;;;;2.97;0.30;;;21.40;49.40;;;;;;5037393;28;20486;-41
2021/10/22 07:13:54;;;;;;;2.15;0.10;;;21.50;49.50;;;;;;5030550;28;20033;-44
2021/10/22 07:16:22;;;;;;;0.32;0.10;;;21.40;50.10;;;;;;5034773;28;20043;-41
2021/10/22 07:18:51;;;;;;;1.13;0.10;;;21.40;49.60;;;;;;5030467;28;20484;-40
2021/10/22 07:21:18;;;;;;;0.10;0.10;;;21.40;49.60;;;;;;5032363;28;20053;-40
2021/10/22 07:23:47;;;;;;;0.00;0.00;;;21.40;49.70;;;;;;5031297;28;20536;-42
2021/10/22 07:26:16;;;;;;;1.75;0.43;;;21.40;49.70;;;;;;5033674;28;20041;-40
2021/10/22 07:28:44;;;;;;;0.50;0.10;;;21.40;49.70;;;;;;5036545;28;20068;-40
2021/10/22 07:31:11;;;;;;;0.35;0.10;;;21.40;49.70;;;;;;5031839;28;20501;-40
2021/10/22 07:33:39;;;;;;;1.75;0.30;;;21.40;49.80;;;;;;5045331;28;20480;-42
2021/10/22 07:36:09;;;;;;;0.50;0.05;;;21.40;49.80;;;;;;5036713;28;20160;-41
2021/10/22 07:38:37;;;;;;;0.90;0.00;;;21.40;49.90;;;;;;5038720;28;20061;-41
2021/10/22 07:41:05;;;;;;;0.55;0.10;;;21.40;49.80;;;;;;5042694;28;20048;-41
2021/10/22 07:43:32;;;;;;;1.05;0.10;;;21.40;49.80;;;;;;5044818;28;20099;-44
2021/10/22 07:46:00;;;;;;;1.27;0.10;;;21.40;50.30;;;;;;5049593;28;20128;-41
2021/10/22 07:48:27;;;;;;;2.15;0.10;;;21.40;50.90;;;;;;5037577;28;20041;-49
2021/10/22 07:50:55;;;;;;;1.23;0.10;;;21.40;51.10;;;;;;5034713;28;20080;-50
2021/10/22 07:53:24;;;;;;;0.22;0.10;;;21.50;51.00;;;;;;5038607;28;20469;-51
2021/10/22 07:55:51;;;;;;;4.82;0.10;;;21.50;51.00;;;;;;5039227;28;20075;-48
2021/10/22 07:58:18;;;;;;;3.55;0.10;;;21.50;50.90;;;;;;5037271;28;20064;-47
2021/10/22 08:00:46;;;;;;;1.55;0.10;;;21.50;51.00;;;;;;5039739;28;20041;-47
2021/10/22 08:03:13;;;;;;;1.48;0.20;;;21.50;51.00;;;;;;5045068;28;20071;-48
2021/10/22 08:05:40;;;;;;;0.95;0.10;;;21.50;51.00;;;;;;5045134;28;20044;-42
2021/10/22 08:08:09;;;;;;;1.13;0.10;;;21.50;51.30;;;;;;5036825;28;20099;-42
2021/10/22 08:10:37;;;;;;;1.48;0.38;;;21.60;51.30;;;;;;5037658;28;20123;-45
2021/10/22 08:13:10;;;;;;;1.02;0.25;;;21.60;51.20;;;;;;5034881;28;20071;-43
2021/10/22 08:15:39;;;;;;;1.85;0.17;;;21.60;51.10;;;;;;5035779;28;20033;-42
2021/10/22 08:18:06;;;;;;;2.92;0.10;;;21.70;51.20;;;;;;5032118;28;20520;-45
2021/10/22 08:20:35;;;;;;;3.08;0.10;;;21.60;51.00;;;;;;5034758;28;20064;-43
2021/10/22 08:23:03;;;;;;;3.47;0.10;;;21.60;50.90;;;;;;5039736;28;20094;-43
2021/10/22 08:25:31;;;;;;;4.07;0.50;;;21.60;50.80;;;;;;5033754;28;20038;-43
2021/10/22 08:27:59;;;;;;;2.60;0.20;;;21.70;50.90;;;;;;5033714;28;20037;-41
2021/10/22 08:30:27;;;;;;;4.95;0.10;;;21.70;50.60;;;;;;5033465;28;20447;-41
2021/10/22 08:32:56;;;;;;;1.10;0.30;;;21.70;51.30;;;;;;5033453;28;20103;-43
2021/10/22 08:35:26;;;;;;;0.60;0.57;;;21.70;51.90;;;;;;5036227;28;20041;-43
2021/10/22 08:37:54;;;;;;;5.03;0.20;;;21.70;52.20;;;;;;5039202;28;20140;-48
2021/10/22 08:40:22;;;;;;;5.22;0.30;;;21.70;52.40;;;;;;5036671;28;20041;-46
2021/10/22 08:42:49;;;;;;;3.90;0.20;;;21.80;52.70;;;;;;5043001;28;20037;-49
2021/10/22 08:45:19;;;;;;;10.32;0.45;;;21.80;52.60;;;;;;5040158;28;20037;-47
2021/10/22 08:47:47;;;;;;;10.40;0.63;;;21.90;52.80;;;;;;5038766;28;20511;-44
2021/10/22 08:50:16;;;;;;;9.32;0.43;;;21.90;53.00;;;;;;5043363;28;20040;-42
2021/10/22 08:52:44;;;;;;;5.03;0.10;;;21.90;53.00;;;;;;5033821;28;20052;-46
2021/10/22 08:55:13;;;;;;;10.35;1.55;;;21.90;53.00;;;;;;5034560;28;20152;-54
2021/10/22 08:57:42;;;;;;;5.60;0.10;;;22.00;53.10;;;;;;5032853;28;20041;-48
2021/10/22 09:00:11;;;;;;;1.27;0.10;;;22.00;53.10;;;;;;5037096;28;20097;-49
2021/10/22 09:02:40;;;;;;;2.20;0.28;;;22.00;52.90;;;;;;5036772;28;20045;-44
2021/10/22 09:05:16;;;;;;;3.83;0.10;;;22.00;53.50;;;;;;5036615;28;20045;-45
2021/10/22 09:07:44;;;;;;;;;;;22.00;52.60;;;;;;5040746;28;20041;-44
2021/10/22 09:10:15;;;;;;;2.40;0.20;;;22.00;52.60;;;;;;5039861;28;20357;-42
2021/10/22 09:12:45;;;;;;;3.40;0.10;;;22.00;52.50;;;;;;5031534;28;20606;-46
2021/10/22 09:15:12;;;;;;;1.73;0.32;;;22.00;52.30;;;;;;5043506;28;20062;-46
2021/10/22 09:17:42;;;;;;;1.38;0.32;;;22.00;52.20;;;;;;5042907;28;20068;-48
2021/10/22 09:20:12;;;;;;;4.68;0.88;;;22.00;52.00;;;;;;5035389;28;20080;-48
2021/10/22 09:22:41;;;;;;;5.05;0.20;;;22.10;52.00;;;;;;5040073;28;20048;-47
2021/10/22 09:25:10;;;;;;;5.53;0.10;;;22.10;51.90;;;;;;5036636;28;20604;-47
2021/10/22 09:27:43;;;;;;;5.25;1.33;;;22.10;51.90;;;;;;5041106;28;20064;-46
2021/10/22 09:30:29;;;;;;;6.90;0.28;;;22.10;51.80;;;;;;5037610;28;20136;-45
2021/10/22 09:32:58;;;;;;;3.38;0.10;;;22.10;51.80;;;;;;5047231;28;20037;-45
2021/10/22 09:35:44;;;;;;;2.88;0.10;;;22.10;51.70;;;;;;5037472;28;20048;-45
2021/10/22 09:38:19;;;;;;;6.25;1.17;;;22.20;51.60;;;;;;5037135;28;20103;-43
2021/10/22 09:40:49;;;;;;;8.68;0.60;;;22.20;51.50;;;;;;5045207;28;20122;-41
2021/10/22 09:43:20;;;;;;;15.98;2.35;;;22.20;51.50;;;;;;5038689;28;20461;-44
2021/10/22 09:45:48;;;;;;;22.35;3.42;;;22.20;51.50;;;;;;5035344;28;20072;-45
2021/10/22 09:48:39;;;;;;;20.52;4.30;;;22.30;51.40;;;;;;5042718;28;20037;-46
2021/10/22 09:51:25;;;;;;;16.48;3.90;;;22.30;51.30;;;;;;5047847;28;20506;-48
2021/10/22 09:53:54;;;;;;;16.63;3.70;;;22.30;51.30;;;;;;5038371;28;20087;-47
2021/10/22 09:56:23;;;;;;;13.50;2.38;;;22.30;51.30;;;;;;5037700;28;20040;-46
2021/10/22 09:58:59;;;;;;;14.45;2.38;;;22.30;51.20;;;;;;5040690;28;20045;-48
2021/10/22 10:01:31;;;;;;;10.52;1.73;;;22.30;51.00;;;;;;5033910;28;20517;-48
2021/10/22 10:04:00;;;;;;;11.23;2.65;;;22.30;50.90;;;;;;5036289;28;20365;-47
2021/10/22 10:06:29;;;;;;;17.92;2.50;;;22.30;50.80;;;;;;5041829;28;20044;-44
2021/10/22 10:08:56;;;;;;;16.77;2.88;;;22.30;50.70;;;;;;5040057;28;20045;-46
2021/10/22 10:11:24;;;;;;;20.00;2.95;;;22.40;50.70;;;;;;5037887;28;20056;-45
2021/10/22 10:13:52;;;;;;;6.60;1.77;;;22.40;50.60;;;;;;5041482;28;21523;-45
2021/10/22 10:16:19;;;;;;;12.35;1.75;;;22.40;50.50;;;;;;5041625;28;20444;-46
2021/10/22 10:18:53;;;;;;;9.55;1.30;;;22.40;50.40;;;;;;5039428;28;20083;-44
2021/10/22 10:21:24;;;;;;;10.00;1.65;;;22.40;50.30;;;;;;5031566;28;20048;-44
2021/10/22 10:23:53;;;;;;;6.30;1.20;;;22.40;50.20;;;;;;5038677;28;20045;-45
2021/10/22 10:26:28;;;;;;;11.07;1.52;;;22.40;50.20;;;;;;5040055;28;20041;-45
2021/10/22 10:28:57;;;;;;;3.90;0.95;;;22.40;50.10;;;;;;5034601;28;20095;-45
2021/10/22 10:31:31;;;;;;;6.15;0.43;;;22.40;50.00;;;;;;5043966;28;20041;-45
2021/10/22 10:33:58;;;;;;;2.25;0.70;;;22.50;50.00;;;;;;5039866;28;20045;-46
2021/10/22 10:36:49;;;;;;;4.80;0.95;;;22.50;49.90;;;;;;5043740;28;20045;-45
2021/10/22 10:39:53;;;;;;;8.15;0.60;;;22.50;49.80;;;;;;5040226;28;20149;-48
2021/10/22 10:42:22;;;;;;;5.22;0.50;;;22.50;49.70;;;;;;5038896;28;26424;-45
2021/10/22 10:44:50;;;;;;;4.15;1.23;;;22.50;49.80;;;;;;5041899;28;20395;-45
2021/10/22 10:47:41;;;;;;;2.72;0.55;;;22.50;49.70;;;;;;5032432;28;20084;-46
2021/10/22 10:50:08;;;;;;;1.13;0.30;;;22.60;49.60;;;;;;5041894;28;20052;-45
2021/10/22 10:52:49;;;;;;;3.65;0.75;;;22.60;49.60;;;;;;5045141;28;20460;-47
2021/10/22 10:55:21;;;;;;;1.25;0.45;;;22.60;49.50;;;;;;5035973;28;20060;-50
2021/10/22 10:57:51;;;;;;;4.43;0.30;;;22.60;49.50;;;;;;5029602;28;20045;-47
2021/10/22 11:00:21;;;;;;;4.05;0.82;;;22.70;49.70;;;;;;5038318;28;20044;-45
2021/10/22 11:03:07;;;;;;;7.30;0.50;;;22.70;49.80;;;;;;5037752;28;20042;-47
2021/10/22 11:05:49;;;;;;;;;;;22.70;49.80;;;;;;5039338;28;20536;-45
2021/10/22 11:08:20;;;;;;;8.65;0.47;;;22.70;49.80;;;;;;5038676;28;20384;-44
2021/10/22 11:10:59;;;;;;;2.17;0.20;;;22.70;50.00;;;;;;5042545;28;20040;-44
2021/10/22 11:13:43;;;;;;;2.58;0.32;;;22.80;49.90;;;;;;5034974;28;20053;-45
2021/10/22 11:16:26;;;;;;;0.45;0.20;;;22.80;49.80;;;;;;5035568;28;20123;-45
2021/10/22 11:18:55;;;;;;;2.10;0.10;;;22.90;49.90;;;;;;5038790;28;20044;-47
2021/10/22 11:21:23;;;;;;;1.67;0.13;;;22.90;49.80;;;;;;5039080;28;20044;-46
2021/10/22 11:23:52;;;;;;;1.55;0.50;;;23.00;49.70;;;;;;5047683;28;20071;-48
2021/10/22 11:26:20;;;;;;;5.15;0.30;;;23.00;49.70;;;;;;5035292;28;20505;-49
2021/10/22 11:28:48;;;;;;;1.20;0.22;;;23.10;49.80;;;;;;5037325;28;20037;-51
2021/10/22 11:31:15;;;;;;;3.50;0.10;;;23.10;49.90;;;;;;5035174;28;20049;-49
2021/10/22 11:33:44;;;;;;;8.77;0.43;;;23.10;50.10;;;;;;5031696;28;20029;-49
2021/10/22 11:36:16;;;;;;;12.05;0.82;;;23.30;50.40;;;;;;5031993;28;20077;-50
2021/10/22 11:38:44;;;;;;;16.55;1.55;;;23.30;51.50;;;;;;5037833;28;20505;-45
2021/10/22 11:41:16;;;;;;;39.92;3.08;;;23.30;51.00;;;;;;5030710;28;20049;-44
2021/10/22 11:44:03;;;;;;;53.78;4.40;;;23.40;51.20;;;;;;5033902;28;20037;-46
2021/10/22 11:46:46;;;;;;;43.50;3.60;;;23.40;51.20;;;;;;5035900;28;20147;-45
2021/10/22 11:49:26;;;;;;;50.60;5.35;;;23.50;51.30;;;;;;5036144;28;20048;-47
2021/10/22 11:51:55;;;;;;;46.65;3.53;;;23.50;51.30;;;;;;5029934;28;20033;-50
2021/10/22 11:54:24;;;;;;;72.07;4.80;;;23.50;51.30;;;;;;5029809;28;20049;-45
2021/10/22 11:56:53;;;;;;;58.53;4.97;;;23.50;51.20;;;;;;5033214;28;20461;-48
2021/10/22 11:59:21;;;;;;;52.83;5.45;;;23.60;51.20;;;;;;5030578;28;20086;-47
2021/10/22 12:01:48;;;;;;;43.17;3.88;;;23.60;51.10;;;;;;5033671;28;20104;-46
2021/10/22 12:04:25;;;;;;;53.15;4.05;;;23.70;51.20;;;;;;5032494;28;20690;-45
2021/10/22 12:07:01;;;;;;;67.25;4.25;;;23.70;51.10;;;;;;5033075;28;20068;-45
2021/10/22 12:09:30;;;;;;;58.90;5.85;;;23.70;51.10;;;;;;5030027;28;20517;-48
2021/10/22 12:12:07;;;;;;;68.22;4.43;;;23.70;51.10;;;;;;5033418;28;20502;-47
2021/10/22 12:14:36;;;;;;;69.20;6.47;;;23.80;51.00;;;;;;5032756;28;20088;-45
2021/10/22 12:17:05;;;;;;;74.90;7.45;;;23.80;50.90;;;;;;5030830;28;20056;-46
2021/10/22 12:19:33;;;;;;;79.38;7.50;;;23.80;50.90;;;;;;5036005;28;20041;-45
2021/10/22 12:22:00;;;;;;;79.05;10.35;;;23.90;50.90;;;;;;5033955;28;20049;-48
2021/10/22 12:24:42;;;;;;;88.70;12.15;;;23.90;50.90;;;;;;5035052;28;20037;-48
2021/10/22 12:27:11;;;;;;;85.00;9.40;;;23.90;50.70;;;;;;5031241;28;20378;-47
2021/10/22 12:29:59;;;;;;;92.70;9.88;;;23.90;50.80;;;;;;5038300;28;20409;-47
2021/10/22 12:32:35;;;;;;;80.10;7.43;;;24.00;50.70;;;;;;5040515;28;20041;-47
2021/10/22 12:35:03;;;;;;;86.20;8.07;;;23.90;50.60;;;;;;5033800;28;20045;-46
2021/10/22 12:37:39;;;;;;;38.47;6.55;;;23.90;50.60;;;;;;5039356;28;20048;-50
2021/10/22 12:40:19;;;;;;;43.33;7.22;;;24.00;50.60;;;;;;5034551;28;20073;-47
2021/10/22 12:43:03;;;;;;;60.95;6.38;;;24.00;50.70;;;;;;5035139;28;20048;-45
2021/10/22 12:45:30;;;;;;;47.30;5.03;;;23.90;50.80;;;;;;5029941;28;20460;-47
2021/10/22 12:48:06;;;;;;;59.15;5.38;;;23.90;50.70;;;;;;5036816;28;20136;-49
2021/10/22 12:50:36;;;;;;;51.65;3.97;;;23.90;50.80;;;;;;5040218;28;20132;-46
2021/10/22 12:53:08;;;;;;;32.58;4.57;;;23.90;50.70;;;;;;5033590;28;20033;-47
2021/10/22 12:55:35;;;;;;;41.72;5.03;;;23.80;50.60;;;;;;5034088;28;20055;-47
2021/10/22 12:58:15;;;;;;;44.58;3.47;;;23.80;50.60;;;;;;5033452;28;20051;-48
2021/10/22 13:00:43;;;;;;;32.60;3.33;;;23.90;50.60;;;;;;5034675;28;20038;-45